sensor_id;sensor_type;location;lat;lon;timestamp;pressure;altitude;pressure_sealevel;temperature;humidity
46456;BME280;64052;47.466;9.094;2023-04-21T00:01:01;95257.19;;;6.22;66.94
46456;BME280;64052;47.466;9.094;2023-04-21T00:06:04;95269.31;;;6.23;66.25
46456;BME280;64052;47.466;9.094;2023-04-21T00:11:06;95247.53;;;6.23;66.40
46456;BME280;64052;47.466;9.094;2023-04-21T00:16:08;95239.69;;;6.11;67.79
46456;BME280;64052;47.466;9.094;2023-04-21T00:21:10;95218.13;;;5.96;67.23
46456;BME280;64052;47.466;9.094;2023-04-21T00:26:11;95212.88;;;5.85;68.09
46456;BME280;64052;47.466;9.094;2023-04-21T00:31:16;95223.44;;;5.83;68.17
46456;BME280;64052;47.466;9.094;2023-04-21T00:36:17;95240.34;;;5.79;68.42
46456;BME280;64052;47.466;9.094;2023-04-21T00:41:20;95230.25;;;5.86;68.65
46456;BME280;64052;47.466;9.094;2023-04-21T00:46:22;95237.88;;;6.00;68.96
46456;BME280;64052;47.466;9.094;2023-04-21T00:51:25;95227.19;;;6.15;68.77
46456;BME280;64052;47.466;9.094;2023-04-21T00:56:30;95219.47;;;6.25;68.93
46456;BME280;64052;47.466;9.094;2023-04-21T01:01:32;95220.28;;;6.25;68.76
46456;BME280;64052;47.466;9.094;2023-04-21T01:06:33;95231.25;;;6.30;68.51
46456;BME280;64052;47.466;9.094;2023-04-21T01:11:37;95237.56;;;6.28;68.49
46456;BME280;64052;47.466;9.094;2023-04-21T01:16:41;95228.38;;;6.33;68.84
46456;BME280;64052;47.466;9.094;2023-04-21T01:21:42;95224.28;;;6.64;68.82
46456;BME280;64052;47.466;9.094;2023-04-21T01:26:44;95244.66;;;6.60;68.33
46456;BME280;64052;47.466;9.094;2023-04-21T01:31:45;95228.22;;;6.69;68.17
46456;BME280;64052;47.466;9.094;2023-04-21T01:36:47;95234.03;;;6.73;67.98
46456;BME280;64052;47.466;9.094;2023-04-21T01:41:49;95236.91;;;6.70;69.37
46456;BME280;64052;47.466;9.094;2023-04-21T01:46:51;95246.44;;;6.71;68.78
46456;BME280;64052;47.466;9.094;2023-04-21T01:51:53;95247.63;;;6.67;68.85
46456;BME280;64052;47.466;9.094;2023-04-21T01:56:54;95242.16;;;6.70;68.46
46456;BME280;64052;47.466;9.094;2023-04-21T02:01:56;95233.81;;;6.65;68.69
46456;BME280;64052;47.466;9.094;2023-04-21T02:06:57;95220.97;;;6.61;69.16
46456;BME280;64052;47.466;9.094;2023-04-21T02:11:59;95215.34;;;6.66;69.37
46456;BME280;64052;47.466;9.094;2023-04-21T02:17:00;95234.75;;;6.75;69.76
46456;BME280;64052;47.466;9.094;2023-04-21T02:22:02;95232.69;;;6.90;68.50
46456;BME280;64052;47.466;9.094;2023-04-21T02:27:04;95224.22;;;6.98;67.82
46456;BME280;64052;47.466;9.094;2023-04-21T02:32:05;95228.50;;;6.99;68.53
46456;BME280;64052;47.466;9.094;2023-04-21T02:37:11;95232.19;;;6.96;67.96
46456;BME280;64052;47.466;9.094;2023-04-21T02:42:12;95231.63;;;6.93;67.84
46456;BME280;64052;47.466;9.094;2023-04-21T02:47:15;95242.97;;;7.14;68.29
46456;BME280;64052;47.466;9.094;2023-04-21T02:52:16;95240.31;;;7.26;68.69
46456;BME280;64052;47.466;9.094;2023-04-21T02:57:18;95252.59;;;7.25;68.81
46456;BME280;64052;47.466;9.094;2023-04-21T03:02:19;95256.69;;;7.39;68.10
46456;BME280;64052;47.466;9.094;2023-04-21T03:07:21;95250.09;;;7.24;68.66
46456;BME280;64052;47.466;9.094;2023-04-21T03:12:22;95241.06;;;7.16;69.20
46456;BME280;64052;47.466;9.094;2023-04-21T03:17:24;95236.00;;;7.25;69.07
46456;BME280;64052;47.466;9.094;2023-04-21T03:22:25;95234.63;;;7.21;68.94
46456;BME280;64052;47.466;9.094;2023-04-21T03:27:27;95225.53;;;7.25;69.36
46456;BME280;64052;47.466;9.094;2023-04-21T03:32:28;95216.91;;;7.34;69.46
46456;BME280;64052;47.466;9.094;2023-04-21T03:37:30;95218.56;;;7.35;69.95
46456;BME280;64052;47.466;9.094;2023-04-21T03:42:34;95209.94;;;7.44;69.81
46456;BME280;64052;47.466;9.094;2023-04-21T03:47:36;95192.56;;;7.43;69.61
46456;BME280;64052;47.466;9.094;2023-04-21T03:52:37;95223.78;;;7.47;70.50
46456;BME280;64052;47.466;9.094;2023-04-21T03:57:40;95222.75;;;7.59;70.73
46456;BME280;64052;47.466;9.094;2023-04-21T04:02:42;95192.53;;;7.65;70.41
46456;BME280;64052;47.466;9.094;2023-04-21T04:07:44;95200.91;;;7.37;71.35
46456;BME280;64052;47.466;9.094;2023-04-21T04:12:45;95195.13;;;7.22;71.91
46456;BME280;64052;47.466;9.094;2023-04-21T04:17:46;95181.91;;;7.24;72.09
46456;BME280;64052;47.466;9.094;2023-04-21T04:22:48;95168.00;;;7.23;72.17
46456;BME280;64052;47.466;9.094;2023-04-21T04:27:49;95162.75;;;7.23;72.15
46456;BME280;64052;47.466;9.094;2023-04-21T04:32:51;95171.94;;;7.17;73.05
46456;BME280;64052;47.466;9.094;2023-04-21T04:37:52;95165.47;;;7.22;72.40
46456;BME280;64052;47.466;9.094;2023-04-21T04:42:54;95155.44;;;7.27;72.43
46456;BME280;64052;47.466;9.094;2023-04-21T04:47:55;95169.19;;;7.19;72.71
46456;BME280;64052;47.466;9.094;2023-04-21T04:52:57;95176.88;;;7.32;72.89
46456;BME280;64052;47.466;9.094;2023-04-21T04:57:58;95182.50;;;7.49;72.30
46456;BME280;64052;47.466;9.094;2023-04-21T05:03:00;95185.91;;;7.61;71.72
46456;BME280;64052;47.466;9.094;2023-04-21T05:08:01;95184.56;;;7.66;70.79
46456;BME280;64052;47.466;9.094;2023-04-21T05:13:03;95185.31;;;7.57;70.66
46456;BME280;64052;47.466;9.094;2023-04-21T05:18:05;95178.75;;;7.41;71.69
46456;BME280;64052;47.466;9.094;2023-04-21T05:23:06;95188.91;;;7.56;70.96
46456;BME280;64052;47.466;9.094;2023-04-21T05:28:07;95191.69;;;7.64;70.31
46456;BME280;64052;47.466;9.094;2023-04-21T05:33:09;95193.13;;;7.68;69.58
46456;BME280;64052;47.466;9.094;2023-04-21T05:38:11;95190.94;;;7.52;69.88
46456;BME280;64052;47.466;9.094;2023-04-21T05:43:12;95197.09;;;7.41;70.17
46456;BME280;64052;47.466;9.094;2023-04-21T05:48:14;95214.56;;;7.52;70.96
46456;BME280;64052;47.466;9.094;2023-04-21T05:53:16;95210.13;;;7.53;70.24
46456;BME280;64052;47.466;9.094;2023-04-21T05:58:17;95207.66;;;7.51;70.79
46456;BME280;64052;47.466;9.094;2023-04-21T06:03:19;95216.28;;;7.63;71.37
46456;BME280;64052;47.466;9.094;2023-04-21T06:08:21;95212.22;;;7.80;71.31
46456;BME280;64052;47.466;9.094;2023-04-21T06:13:23;95200.31;;;7.97;69.95
46456;BME280;64052;47.466;9.094;2023-04-21T06:18:27;95194.41;;;8.05;70.47
46456;BME280;64052;47.466;9.094;2023-04-21T06:23:29;95196.84;;;8.28;70.51
46456;BME280;64052;47.466;9.094;2023-04-21T06:28:31;95218.31;;;8.43;70.63
46456;BME280;64052;47.466;9.094;2023-04-21T06:33:32;95216.22;;;8.37;69.63
46456;BME280;64052;47.466;9.094;2023-04-21T06:38:34;95210.84;;;8.38;70.57
46456;BME280;64052;47.466;9.094;2023-04-21T06:43:35;95212.91;;;8.35;69.77
46456;BME280;64052;47.466;9.094;2023-04-21T06:48:37;95207.47;;;8.26;69.68
46456;BME280;64052;47.466;9.094;2023-04-21T06:53:38;95211.06;;;8.25;69.43
46456;BME280;64052;47.466;9.094;2023-04-21T06:58:40;95202.13;;;8.38;69.20
46456;BME280;64052;47.466;9.094;2023-04-21T07:03:41;95209.59;;;8.42;69.56
46456;BME280;64052;47.466;9.094;2023-04-21T07:08:43;95204.84;;;8.26;70.10
46456;BME280;64052;47.466;9.094;2023-04-21T07:13:44;95205.31;;;8.41;69.88
46456;BME280;64052;47.466;9.094;2023-04-21T07:18:46;95195.44;;;8.55;69.62
46456;BME280;64052;47.466;9.094;2023-04-21T07:23:47;95190.50;;;8.71;68.82
46456;BME280;64052;47.466;9.094;2023-04-21T07:28:49;95173.75;;;8.82;68.51
46456;BME280;64052;47.466;9.094;2023-04-21T07:33:50;95180.69;;;8.83;68.34
46456;BME280;64052;47.466;9.094;2023-04-21T07:38:52;95188.03;;;8.90;67.52
46456;BME280;64052;47.466;9.094;2023-04-21T07:43:53;95188.44;;;8.95;68.45
46456;BME280;64052;47.466;9.094;2023-04-21T07:48:56;95211.00;;;9.07;68.49
46456;BME280;64052;47.466;9.094;2023-04-21T07:53:57;95197.44;;;9.32;67.78
46456;BME280;64052;47.466;9.094;2023-04-21T07:58:59;95207.81;;;9.43;67.95
46456;BME280;64052;47.466;9.094;2023-04-21T08:04:00;95197.88;;;9.37;68.22
46456;BME280;64052;47.466;9.094;2023-04-21T08:09:02;95195.22;;;9.47;67.59
46456;BME280;64052;47.466;9.094;2023-04-21T08:14:04;95204.25;;;9.24;67.83
46456;BME280;64052;47.466;9.094;2023-04-21T08:19:06;95198.25;;;9.42;68.38
46456;BME280;64052;47.466;9.094;2023-04-21T08:24:07;95192.72;;;9.55;67.49
46456;BME280;64052;47.466;9.094;2023-04-21T08:29:09;95194.66;;;9.63;68.43
46456;BME280;64052;47.466;9.094;2023-04-21T08:34:10;95195.97;;;9.87;68.04
46456;BME280;64052;47.466;9.094;2023-04-21T08:39:13;95199.59;;;9.86;67.74
46456;BME280;64052;47.466;9.094;2023-04-21T08:44:15;95192.06;;;9.91;67.34
46456;BME280;64052;47.466;9.094;2023-04-21T08:49:18;95192.34;;;9.97;67.22
46456;BME280;64052;47.466;9.094;2023-04-21T08:54:21;95187.19;;;10.06;67.18
46456;BME280;64052;47.466;9.094;2023-04-21T08:59:22;95185.97;;;10.28;67.08
46456;BME280;64052;47.466;9.094;2023-04-21T09:04:24;95184.56;;;10.34;65.46
46456;BME280;64052;47.466;9.094;2023-04-21T09:09:25;95191.00;;;10.31;66.82
46456;BME280;64052;47.466;9.094;2023-04-21T09:14:31;95192.03;;;10.48;66.84
46456;BME280;64052;47.466;9.094;2023-04-21T09:19:33;95195.13;;;10.44;65.36
46456;BME280;64052;47.466;9.094;2023-04-21T09:24:34;95190.94;;;10.69;65.44
46456;BME280;64052;47.466;9.094;2023-04-21T09:29:36;95187.13;;;10.81;64.71
46456;BME280;64052;47.466;9.094;2023-04-21T09:34:40;95194.81;;;10.93;65.28
46456;BME280;64052;47.466;9.094;2023-04-21T09:39:46;95196.34;;;10.95;64.72
46456;BME280;64052;47.466;9.094;2023-04-21T09:45:04;95191.06;;;10.95;65.55
46456;BME280;64052;47.466;9.094;2023-04-21T09:50:11;95195.16;;;11.26;64.89
46456;BME280;64052;47.466;9.094;2023-04-21T09:55:14;95184.63;;;11.52;63.60
46456;BME280;64052;47.466;9.094;2023-04-21T10:00:16;95192.38;;;11.72;64.14
46456;BME280;64052;47.466;9.094;2023-04-21T10:05:18;95181.09;;;11.88;63.39
46456;BME280;64052;47.466;9.094;2023-04-21T10:10:25;95174.16;;;12.14;62.22
46456;BME280;64052;47.466;9.094;2023-04-21T10:15:38;95168.22;;;12.55;61.46
46456;BME280;64052;47.466;9.094;2023-04-21T10:26:17;95155.13;;;13.21;61.25
46456;BME280;64052;47.466;9.094;2023-04-21T10:41:57;95159.06;;;13.00;60.28
46456;BME280;64052;47.466;9.094;2023-04-21T10:47:43;95162.41;;;13.19;61.25
46456;BME280;64052;47.466;9.094;2023-04-21T10:53:11;95138.88;;;13.82;61.31
46456;BME280;64052;47.466;9.094;2023-04-21T10:58:14;95148.41;;;14.16;59.52
46456;BME280;64052;47.466;9.094;2023-04-21T11:03:16;95127.47;;;14.30;61.66
46456;BME280;64052;47.466;9.094;2023-04-21T11:08:17;95143.09;;;14.25;59.15
46456;BME280;64052;47.466;9.094;2023-04-21T11:13:20;95130.84;;;14.24;59.92
46456;BME280;64052;47.466;9.094;2023-04-21T11:18:31;95126.97;;;14.34;60.16
46456;BME280;64052;47.466;9.094;2023-04-21T11:23:33;95110.41;;;14.32;61.36
46456;BME280;64052;47.466;9.094;2023-04-21T11:28:34;95104.88;;;14.42;63.11
46456;BME280;64052;47.466;9.094;2023-04-21T11:33:39;95116.97;;;14.53;61.82
46456;BME280;64052;47.466;9.094;2023-04-21T11:38:41;95117.38;;;14.65;61.86
46456;BME280;64052;47.466;9.094;2023-04-21T11:43:44;95104.72;;;14.84;60.53
46456;BME280;64052;47.466;9.094;2023-04-21T11:48:46;95100.44;;;14.98;61.69
46456;BME280;64052;47.466;9.094;2023-04-21T11:53:58;95097.44;;;15.24;60.78
46456;BME280;64052;47.466;9.094;2023-04-21T11:58:59;95101.75;;;15.25;61.07
46456;BME280;64052;47.466;9.094;2023-04-21T12:04:02;95098.03;;;15.35;61.35
46456;BME280;64052;47.466;9.094;2023-04-21T12:09:04;95098.38;;;15.70;62.14
46456;BME280;64052;47.466;9.094;2023-04-21T12:14:07;95095.19;;;15.90;60.14
46456;BME280;64052;47.466;9.094;2023-04-21T12:19:08;95092.06;;;16.16;58.21
46456;BME280;64052;47.466;9.094;2023-04-21T12:24:10;95094.81;;;16.23;59.18
46456;BME280;64052;47.466;9.094;2023-04-21T12:29:11;95093.34;;;16.35;58.02
46456;BME280;64052;47.466;9.094;2023-04-21T12:34:13;95090.75;;;16.57;58.83
46456;BME280;64052;47.466;9.094;2023-04-21T12:39:15;95100.75;;;16.55;57.97
46456;BME280;64052;47.466;9.094;2023-04-21T12:44:16;95095.16;;;16.86;56.63
46456;BME280;64052;47.466;9.094;2023-04-21T12:49:18;95101.72;;;16.54;56.10
46456;BME280;64052;47.466;9.094;2023-04-21T12:54:19;95100.78;;;16.25;58.06
46456;BME280;64052;47.466;9.094;2023-04-21T12:59:21;95104.28;;;16.25;58.93
46456;BME280;64052;47.466;9.094;2023-04-21T13:04:22;95107.56;;;16.42;60.01
46456;BME280;64052;47.466;9.094;2023-04-21T13:09:25;95106.09;;;16.40;59.02
46456;BME280;64052;47.466;9.094;2023-04-21T13:14:26;95116.47;;;16.20;59.63
46456;BME280;64052;47.466;9.094;2023-04-21T13:19:28;95121.38;;;15.78;61.37
46456;BME280;64052;47.466;9.094;2023-04-21T13:24:30;95121.97;;;15.65;60.72
46456;BME280;64052;47.466;9.094;2023-04-21T13:29:31;95116.88;;;15.63;60.35
46456;BME280;64052;47.466;9.094;2023-04-21T13:34:33;95113.25;;;15.56;59.91
46456;BME280;64052;47.466;9.094;2023-04-21T13:39:35;95115.13;;;15.70;60.15
46456;BME280;64052;47.466;9.094;2023-04-21T13:44:37;95107.47;;;15.91;60.78
46456;BME280;64052;47.466;9.094;2023-04-21T13:49:38;95095.56;;;16.01;59.10
46456;BME280;64052;47.466;9.094;2023-04-21T13:54:40;95099.84;;;16.33;60.89
46456;BME280;64052;47.466;9.094;2023-04-21T13:59:41;95102.47;;;16.84;59.58
46456;BME280;64052;47.466;9.094;2023-04-21T14:04:43;95100.59;;;17.44;55.17
46456;BME280;64052;47.466;9.094;2023-04-21T14:09:45;95103.38;;;17.57;56.61
46456;BME280;64052;47.466;9.094;2023-04-21T14:14:46;95103.00;;;17.60;55.51
46456;BME280;64052;47.466;9.094;2023-04-21T14:19:48;95101.63;;;17.21;56.05
46456;BME280;64052;47.466;9.094;2023-04-21T14:24:50;95101.28;;;17.24;55.54
46456;BME280;64052;47.466;9.094;2023-04-21T14:29:51;95095.63;;;17.12;54.28
46456;BME280;64052;47.466;9.094;2023-04-21T14:34:53;95099.63;;;16.86;53.92
46456;BME280;64052;47.466;9.094;2023-04-21T14:39:54;95094.19;;;16.72;56.04
46456;BME280;64052;47.466;9.094;2023-04-21T14:44:56;95075.09;;;16.69;54.02
46456;BME280;64052;47.466;9.094;2023-04-21T14:49:57;95052.50;;;16.80;55.86
46456;BME280;64052;47.466;9.094;2023-04-21T14:54:59;95042.88;;;17.00;56.20
46456;BME280;64052;47.466;9.094;2023-04-21T15:00:00;95059.47;;;17.03;55.63
46456;BME280;64052;47.466;9.094;2023-04-21T15:05:02;95060.84;;;16.98;55.27
46456;BME280;64052;47.466;9.094;2023-04-21T15:10:05;95064.16;;;17.00;53.98
46456;BME280;64052;47.466;9.094;2023-04-21T15:15:07;95068.94;;;16.90;53.89
46456;BME280;64052;47.466;9.094;2023-04-21T15:20:09;95067.50;;;16.88;54.62
46456;BME280;64052;47.466;9.094;2023-04-21T15:25:11;95067.75;;;16.93;54.89
46456;BME280;64052;47.466;9.094;2023-04-21T15:30:13;95062.59;;;16.91;55.10
46456;BME280;64052;47.466;9.094;2023-04-21T15:35:14;95062.25;;;16.94;55.18
46456;BME280;64052;47.466;9.094;2023-04-21T15:40:16;95058.31;;;16.90;56.04
46456;BME280;64052;47.466;9.094;2023-04-21T15:45:17;95073.84;;;16.50;55.34
46456;BME280;64052;47.466;9.094;2023-04-21T15:50:19;95066.25;;;16.47;56.61
46456;BME280;64052;47.466;9.094;2023-04-21T15:55:21;95065.88;;;16.50;55.38
46456;BME280;64052;47.466;9.094;2023-04-21T16:00:22;95068.81;;;16.55;55.80
46456;BME280;64052;47.466;9.094;2023-04-21T16:05:24;95059.78;;;16.34;56.28
46456;BME280;64052;47.466;9.094;2023-04-21T16:10:29;95058.84;;;16.27;56.53
46456;BME280;64052;47.466;9.094;2023-04-21T16:15:31;95067.59;;;16.21;56.63
46456;BME280;64052;47.466;9.094;2023-04-21T16:20:32;95067.84;;;16.11;57.39
46456;BME280;64052;47.466;9.094;2023-04-21T16:25:34;95066.25;;;15.95;57.00
46456;BME280;64052;47.466;9.094;2023-04-21T16:30:36;95069.69;;;15.95;56.35
46456;BME280;64052;47.466;9.094;2023-04-21T16:35:38;95069.31;;;15.83;56.16
46456;BME280;64052;47.466;9.094;2023-04-21T16:40:39;95086.25;;;15.67;56.37
46456;BME280;64052;47.466;9.094;2023-04-21T16:45:41;95095.34;;;15.73;56.82
46456;BME280;64052;47.466;9.094;2023-04-21T16:50:42;95066.09;;;15.73;56.27
46456;BME280;64052;47.466;9.094;2023-04-21T16:55:44;95062.16;;;15.69;56.97
46456;BME280;64052;47.466;9.094;2023-04-21T17:00:45;95076.00;;;15.64;56.01
46456;BME280;64052;47.466;9.094;2023-04-21T17:05:47;95084.06;;;15.17;58.74
46456;BME280;64052;47.466;9.094;2023-04-21T17:10:48;95082.41;;;15.16;58.16
46456;BME280;64052;47.466;9.094;2023-04-21T17:15:50;95073.53;;;15.24;58.38
46456;BME280;64052;47.466;9.094;2023-04-21T17:20:52;95080.91;;;15.14;58.24
46456;BME280;64052;47.466;9.094;2023-04-21T17:25:53;95085.53;;;14.97;58.78
46456;BME280;64052;47.466;9.094;2023-04-21T17:30:55;95079.19;;;14.83;59.11
46456;BME280;64052;47.466;9.094;2023-04-21T17:36:15;95083.22;;;14.94;58.18
46456;BME280;64052;47.466;9.094;2023-04-21T17:41:16;95075.75;;;14.97;59.30
46456;BME280;64052;47.466;9.094;2023-04-21T17:46:18;95075.75;;;14.97;59.22
46456;BME280;64052;47.466;9.094;2023-04-21T17:51:20;95078.84;;;14.78;61.24
46456;BME280;64052;47.466;9.094;2023-04-21T17:56:22;95080.94;;;14.59;61.91
46456;BME280;64052;47.466;9.094;2023-04-21T18:01:23;95074.31;;;14.55;63.38
46456;BME280;64052;47.466;9.094;2023-04-21T18:06:25;95084.72;;;14.33;63.56
46456;BME280;64052;47.466;9.094;2023-04-21T18:11:27;95079.72;;;13.98;63.77
46456;BME280;64052;47.466;9.094;2023-04-21T18:16:28;95074.41;;;13.98;63.67
46456;BME280;64052;47.466;9.094;2023-04-21T18:21:30;95072.34;;;13.77;64.92
46456;BME280;64052;47.466;9.094;2023-04-21T18:26:31;95088.28;;;13.52;65.33
46456;BME280;64052;47.466;9.094;2023-04-21T18:31:33;95081.31;;;13.68;64.40
46456;BME280;64052;47.466;9.094;2023-04-21T18:36:35;95096.03;;;13.70;64.29
46456;BME280;64052;47.466;9.094;2023-04-21T18:41:39;95103.78;;;13.80;64.29
46456;BME280;64052;47.466;9.094;2023-04-21T18:46:40;95108.91;;;13.90;64.57
46456;BME280;64052;47.466;9.094;2023-04-21T18:51:42;95117.47;;;14.00;63.41
46456;BME280;64052;47.466;9.094;2023-04-21T18:56:43;95124.13;;;13.88;63.85
46456;BME280;64052;47.466;9.094;2023-04-21T19:01:45;95116.03;;;13.89;63.83
46456;BME280;64052;47.466;9.094;2023-04-21T19:06:47;95113.28;;;13.49;64.33
46456;BME280;64052;47.466;9.094;2023-04-21T19:11:48;95107.16;;;13.24;65.23
46456;BME280;64052;47.466;9.094;2023-04-21T19:16:50;95121.03;;;13.18;65.27
46456;BME280;64052;47.466;9.094;2023-04-21T19:21:51;95120.72;;;13.38;64.64
46456;BME280;64052;47.466;9.094;2023-04-21T19:26:53;95113.59;;;13.13;65.50
46456;BME280;64052;47.466;9.094;2023-04-21T19:31:54;95108.81;;;13.17;66.61
46456;BME280;64052;47.466;9.094;2023-04-21T19:36:56;95114.09;;;13.17;66.35
46456;BME280;64052;47.466;9.094;2023-04-21T19:41:57;95111.94;;;13.20;65.74
46456;BME280;64052;47.466;9.094;2023-04-21T19:46:59;95117.56;;;13.26;66.21
46456;BME280;64052;47.466;9.094;2023-04-21T19:52:00;95125.84;;;13.23;66.08
46456;BME280;64052;47.466;9.094;2023-04-21T19:57:02;95137.09;;;13.33;65.72
46456;BME280;64052;47.466;9.094;2023-04-21T20:02:03;95148.34;;;13.27;66.26
46456;BME280;64052;47.466;9.094;2023-04-21T20:07:05;95145.53;;;13.28;66.10
46456;BME280;64052;47.466;9.094;2023-04-21T20:12:07;95154.47;;;13.35;66.37
46456;BME280;64052;47.466;9.094;2023-04-21T20:17:08;95156.13;;;13.12;67.41
46456;BME280;64052;47.466;9.094;2023-04-21T20:22:09;95149.47;;;13.07;65.51
46456;BME280;64052;47.466;9.094;2023-04-21T20:27:12;95153.25;;;12.88;66.99
46456;BME280;64052;47.466;9.094;2023-04-21T20:32:13;95152.78;;;13.01;67.71
46456;BME280;64052;47.466;9.094;2023-04-21T20:37:15;95150.13;;;12.93;67.98
46456;BME280;64052;47.466;9.094;2023-04-21T20:42:16;95148.97;;;12.96;67.54
46456;BME280;64052;47.466;9.094;2023-04-21T20:47:18;95148.81;;;13.05;67.37
46456;BME280;64052;47.466;9.094;2023-04-21T20:52:20;95156.06;;;12.95;67.17
46456;BME280;64052;47.466;9.094;2023-04-21T20:57:22;95158.41;;;12.90;67.26
46456;BME280;64052;47.466;9.094;2023-04-21T21:02:23;95147.84;;;12.98;67.18
46456;BME280;64052;47.466;9.094;2023-04-21T21:07:25;95156.44;;;13.00;66.00
46456;BME280;64052;47.466;9.094;2023-04-21T21:12:26;95161.41;;;13.12;65.15
46456;BME280;64052;47.466;9.094;2023-04-21T21:17:28;95161.88;;;12.99;65.24
46456;BME280;64052;47.466;9.094;2023-04-21T21:22:29;95159.59;;;13.04;65.15
46456;BME280;64052;47.466;9.094;2023-04-21T21:27:31;95168.00;;;12.99;64.99
46456;BME280;64052;47.466;9.094;2023-04-21T21:32:33;95166.19;;;12.91;64.98
46456;BME280;64052;47.466;9.094;2023-04-21T21:37:35;95169.59;;;12.84;65.45
46456;BME280;64052;47.466;9.094;2023-04-21T21:42:37;95174.88;;;12.67;65.98
46456;BME280;64052;47.466;9.094;2023-04-21T21:47:38;95170.41;;;12.68;65.97
46456;BME280;64052;47.466;9.094;2023-04-21T21:52:45;95163.53;;;12.40;66.50
46456;BME280;64052;47.466;9.094;2023-04-21T21:57:46;95159.56;;;12.36;66.03
46456;BME280;64052;47.466;9.094;2023-04-21T22:02:48;95156.84;;;12.19;66.52
46456;BME280;64052;47.466;9.094;2023-04-21T22:07:49;95156.84;;;12.19;66.33
46456;BME280;64052;47.466;9.094;2023-04-21T22:12:54;95156.53;;;12.22;67.26
46456;BME280;64052;47.466;9.094;2023-04-21T22:17:55;95157.91;;;12.35;66.21
46456;BME280;64052;47.466;9.094;2023-04-21T22:22:57;95159.59;;;12.09;67.34
46456;BME280;64052;47.466;9.094;2023-04-21T22:27:58;95156.38;;;11.98;67.01
46456;BME280;64052;47.466;9.094;2023-04-21T22:33:00;95154.03;;;11.94;67.14
46456;BME280;64052;47.466;9.094;2023-04-21T22:38:02;95154.78;;;12.05;66.89
46456;BME280;64052;47.466;9.094;2023-04-21T22:43:03;95154.22;;;11.93;66.49
46456;BME280;64052;47.466;9.094;2023-04-21T22:48:05;95162.13;;;11.93;66.70
46456;BME280;64052;47.466;9.094;2023-04-21T22:53:06;95162.75;;;11.87;67.16
46456;BME280;64052;47.466;9.094;2023-04-21T22:58:08;95166.84;;;11.81;67.54
46456;BME280;64052;47.466;9.094;2023-04-21T23:03:09;95160.94;;;11.87;66.44
46456;BME280;64052;47.466;9.094;2023-04-21T23:08:11;95167.69;;;11.81;66.77
46456;BME280;64052;47.466;9.094;2023-04-21T23:13:12;95161.97;;;11.68;66.96
46456;BME280;64052;47.466;9.094;2023-04-21T23:18:14;95154.53;;;11.63;67.52
46456;BME280;64052;47.466;9.094;2023-04-21T23:23:16;95157.09;;;11.55;67.21
46456;BME280;64052;47.466;9.094;2023-04-21T23:28:17;95156.44;;;11.53;67.02
46456;BME280;64052;47.466;9.094;2023-04-21T23:33:19;95150.03;;;11.37;67.60
46456;BME280;64052;47.466;9.094;2023-04-21T23:38:20;95158.94;;;11.36;67.16
46456;BME280;64052;47.466;9.094;2023-04-21T23:43:22;95154.91;;;11.24;67.47
46456;BME280;64052;47.466;9.094;2023-04-21T23:48:23;95152.09;;;11.25;67.70
46456;BME280;64052;47.466;9.094;2023-04-21T23:53:25;95145.53;;;11.30;67.87
46456;BME280;64052;47.466;9.094;2023-04-21T23:58:26;95145.47;;;11.21;68.20
